This is the latest recevied weather packets stored in our database for station/object dl9mfl-6. If no packets are shown the sender has not sent any weather packets the latest 10 day(s).
| Time | Temp. | Humidity | Pressure | Rain* | Wind** | Luminosity | Snow |
|---|---|---|---|---|---|---|---|
| 1777737923 | 22.78° C | 37% | 1019.4 hPa | 0 mm | - | - | - |
| 1777737919 | 22.78° C | 36% | 1019.3 hPa | 0 mm | - | - | - |
| 1777737915 | 22.78° C | 36% | 1019.3 hPa | 0 mm | - | - | - |
| 1777737911 | 22.78° C | 37% | 1019.3 hPa | 0 mm | - | - | - |
| 1777737907 | 24.44° C | 33% | 1015.7 hPa | 0 mm | - | - | - |
| 1777737899 | 22.78° C | 37% | 1019.3 hPa | 0 mm | - | - | - |
| 1777737890 | 22.78° C | 37% | 1019.3 hPa | 0 mm | - | - | - |
| 1777737886 | 22.22° C | 35% | 1019.3 hPa | 0 mm | - | - | - |
| 1777737882 | 22.22° C | 36% | 1019.3 hPa | 0 mm | - | - | - |
| 1777737878 | 22.22° C | 35% | 1019.3 hPa | 0 mm | - | - | - |
| 1777737874 | 22.22° C | 38% | 1019.4 hPa | 0 mm | - | - | - |
| 1777737866 | 22.22° C | 37% | 1019.3 hPa | 0 mm | - | - | - |
| 1777737862 | 22.22° C | 37% | 1019.3 hPa | 0 mm | - | - | - |
| 1777737858 | 22.22° C | 37% | 1019.3 hPa | 0 mm | - | - | - |
| 1777737854 | 22.22° C | 38% | 1019.4 hPa | 0 mm | - | - | - |
| 1777737848 | 22.22° C | 37% | 1019.3 hPa | 0 mm | - | - | - |
| 1777737840 | 24.44° C | 33% | 1015.6 hPa | 0 mm | - | - | - |
| 1777737836 | 22.22° C | 37% | 1019.4 hPa | 0 mm | - | - | - |
| 1777737832 | 22.22° C | 38% | 1019.4 hPa | 0 mm | - | - | - |
| 1777737823 | 22.22° C | 37% | 1019.3 hPa | 0 mm | - | - | - |
| 1777737819 | 22.22° C | 38% | 1019.4 hPa | 0 mm | - | - | - |
| 1777737815 | 21.67° C | 36% | 1019.4 hPa | 0 mm | - | - | - |
| 1777737807 | 21.67° C | 36% | 1019.4 hPa | 0 mm | - | - | - |
| 1777737802 | 21.67° C | 39% | 1019.4 hPa | 0 mm | - | - | - |
| 1777737798 | 21.67° C | 37% | 1019.5 hPa | 0 mm | - | - | - |
* Rain latest hour (hover to see other rain measurements)
** Current wind speed in m/s (hover to see current wind gust speed)